METAR Data
IDs: Format: Raw Decoded Include TAF

Data at: 2241 UTC 02 Aug 2021

EGNM 022220Z 26008KT CAVOK 11/08 Q1014